»·PEaware :: N799DS KVNY-KLGB

N799DS :: KVNY-KLGB

FLIGHT INFORMATION

Flight Status: Arrived
Operator: Privately registered:
United States
More flights under this callsign
Pilot: Wolfgang B. (15069)
Aircraft: CESSNA 172 SKYHAWK
(C172)
More flights by this aircraft type
Origin: KVNY Van Nuys
United States
Destination: KLGB Long Beach
United States
More flights between these airports :: More routes between these airports
Route: +ADAMM3 ADAMM V394 SLI
File this flight plan on PilotEdge
Remarks:
Altitude:
(Current/Filed)
5,000ft
Speed:
(Current/Filed)
120kts
Departed: 15-Mar-20 02:50 PM
Arrived: 15-Mar-20 03:32 PM
Distance/Time
Traveled:
29nm/0:42
Distance/Time
To Go:
Arrived

Flight Plot

Page will automatically refresh every two minutes.

Flight plan parsing failed; only flown route is shown


Map Options




Map Legend


Flown Route
Filed Route
Departure Airport
Arrival Airport
Navaid (VOR, NDB)
Fix

Horizontal Profiles

Position Reports

Time Latitude Longitude Heading Altitude Ground
Speed
15-Mar-20 14:21 34.215213 -118.498829 92 806ft 0kts
15-Mar-20 14:22 34.215213 -118.498829 92 806ft 0kts
15-Mar-20 14:23 34.215213 -118.498829 92 806ft 0kts
15-Mar-20 14:24 34.215213 -118.498829 92 806ft 0kts
15-Mar-20 14:25 34.215213 -118.498829 92 806ft 0kts
15-Mar-20 14:26 34.215213 -118.498829 92 806ft 0kts
15-Mar-20 14:27 34.215213 -118.498829 92 806ft 0kts
15-Mar-20 14:28 34.215213 -118.498829 92 806ft 0kts
15-Mar-20 14:29 34.215213 -118.498829 92 806ft 0kts
15-Mar-20 14:30 34.215213 -118.498829 92 806ft 0kts
15-Mar-20 14:31 34.215213 -118.498829 92 806ft 0kts
15-Mar-20 14:32 34.215213 -118.498829 92 806ft 0kts
15-Mar-20 14:33 34.215213 -118.498829 92 806ft 0kts
15-Mar-20 14:34 34.215213 -118.498829 92 806ft 0kts
15-Mar-20 14:35 34.215213 -118.498829 92 806ft 0kts
15-Mar-20 14:36 34.215213 -118.498829 92 806ft 0kts
15-Mar-20 14:37 34.215213 -118.498829 92 806ft 0kts
15-Mar-20 14:38 34.215213 -118.498829 92 806ft 0kts
15-Mar-20 14:39 34.215213 -118.498829 92 806ft 0kts
15-Mar-20 14:40 34.215213 -118.498829 92 806ft 0kts
15-Mar-20 14:41 34.215050 -118.498538 110 806ft 7kts
15-Mar-20 14:42 34.217113 -118.496916 48 806ft 15kts
15-Mar-20 14:43 34.216778 -118.492519 87 806ft 15kts
15-Mar-20 14:44 34.218571 -118.492275 46 806ft 0kts
15-Mar-20 14:46 34.218571 -118.492275 46 806ft 0kts
15-Mar-20 14:46 34.218571 -118.492275 46 806ft 0kts
15-Mar-20 14:47 34.218571 -118.492275 46 806ft 0kts
15-Mar-20 14:48 34.218571 -118.492275 46 806ft 0kts
15-Mar-20 14:49 34.214287 -118.490796 179 811ft 70kts
15-Mar-20 14:50 34.196342 -118.485999 169 1603ft 79kts
15-Mar-20 14:52 34.179785 -118.469325 122 2568ft 80kts
15-Mar-20 14:52 34.173105 -118.450569 125 3184ft 78kts
15-Mar-20 14:53 34.164141 -118.428206 125 3809ft 87kts
15-Mar-20 14:54 34.154660 -118.403800 126 4562ft 80kts
15-Mar-20 14:55 34.152767 -118.375097 90 5013ft 113kts
15-Mar-20 14:56 34.154777 -118.333331 92 5008ft 133kts
15-Mar-20 14:57 34.157608 -118.288784 91 5007ft 132kts
15-Mar-20 14:58 34.158248 -118.247674 119 5007ft 125kts
15-Mar-20 14:59 34.142424 -118.211063 123 5012ft 127kts
15-Mar-20 15:00 34.128632 -118.174018 120 5013ft 126kts
15-Mar-20 15:01 34.117015 -118.139588 119 5013ft 126kts
15-Mar-20 15:02 34.104257 -118.099880 119 5015ft 126kts
15-Mar-20 15:03 34.091801 -118.059610 117 5016ft 127kts
15-Mar-20 15:04 34.079113 -118.018113 116 5017ft 131kts
15-Mar-20 15:05 34.065936 -117.975258 114 5017ft 134kts
15-Mar-20 15:06 34.051683 -117.928968 113 5025ft 136kts
15-Mar-20 15:07 34.036946 -117.881182 112 5025ft 137kts
15-Mar-20 15:08 34.021989 -117.833813 124 5020ft 137kts
15-Mar-20 15:09 33.989312 -117.838387 199 5023ft 117kts
15-Mar-20 15:10 33.956017 -117.847728 199 4777ft 111kts
15-Mar-20 15:11 33.930228 -117.861821 214 4272ft 101kts
15-Mar-20 15:12 33.902871 -117.858004 171 3999ft 107kts
15-Mar-20 15:13 33.875166 -117.849186 171 4006ft 107kts
15-Mar-20 15:14 33.846745 -117.841617 180 4009ft 106kts
15-Mar-20 15:15 33.818507 -117.839726 181 4012ft 106kts
15-Mar-20 15:16 33.789614 -117.838071 186 4015ft 106kts
15-Mar-20 15:17 33.761653 -117.842838 191 4018ft 106kts
15-Mar-20 15:18 33.735842 -117.855110 211 4019ft 105kts
15-Mar-20 15:19 33.711160 -117.873418 211 4019ft 105kts
15-Mar-20 15:20 33.686244 -117.891876 211 4019ft 104kts
15-Mar-20 15:21 33.662056 -117.911278 237 4014ft 106kts
15-Mar-20 15:22 33.668779 -117.947492 281 3555ft 113kts
15-Mar-20 15:23 33.680681 -117.980926 295 3101ft 106kts
15-Mar-20 15:24 33.699457 -118.007942 306 2625ft 111kts
15-Mar-20 15:25 33.720351 -118.033632 308 2146ft 111kts
15-Mar-20 15:26 33.741633 -118.059375 308 1937ft 114kts
15-Mar-20 15:27 33.761653 -118.083486 308 1428ft 106kts
15-Mar-20 15:28 33.780367 -118.106043 308 912ft 94kts
15-Mar-20 15:29 33.794888 -118.123633 305 518ft 73kts
15-Mar-20 15:30 33.807089 -118.138218 305 190ft 66kts
15-Mar-20 15:31 33.816964 -118.150366 317 40ft 31kts
15-Mar-20 15:32 33.818570 -118.153814 267 44ft 0kts
15-Mar-20 15:33 33.818570 -118.153814 267 44ft 0kts
15-Mar-20 15:34 33.818339 -118.156196 237 45ft 21kts
15-Mar-20 15:35 33.813443 -118.157344 179 48ft 15kts
15-Mar-20 15:36 33.812913 -118.157304 184 48ft 0kts
15-Mar-20 15:37 33.802119 -118.132430 306 317ft 70kts
15-Mar-20 15:38 33.814089 -118.146757 307 38ft 56kts
15-Mar-20 15:39 33.817070 -118.150481 316 40ft 31kts
15-Mar-20 15:40 33.815040 -118.157322 182 48ft 20kts

Navigation Log

Ident Type
Flight plan parsing failed, navigation log unavailable